Time;durP1;ratioP1;P1;durP2;ratioP2;P2;SDS_P1;SDS_P2;PMS_P1;PMS_P2;Temp;Humidity;BMP_temperature;BMP_pressure;BME280_temperature;BME280_humidity;BME280_pressure;Samples;Min_cycle;Max_cycle;Signal;HPM_P1;HPM_P2
2021/09/02 00:01:07;;;;;;;11.52;7.55;;;;;;;;;;4969683;28;20053;-71
2021/09/02 00:03:33;;;;;;;12.45;7.57;;;;;;;;;;4973655;28;20389;-71
2021/09/02 00:06:01;;;;;;;12.05;7.10;;;;;;;;;;4973641;28;20034;-74
2021/09/02 00:08:27;;;;;;;11.32;7.60;;;;;;;;;;4973562;28;20125;-72
2021/09/02 00:10:53;;;;;;;10.75;7.60;;;;;;;;;;4949050;28;20035;-70
2021/09/02 00:13:19;;;;;;;11.43;7.32;;;;;;;;;;4971087;28;20047;-70
2021/09/02 00:15:46;;;;;;;9.90;7.55;;;;;;;;;;4968860;28;20031;-70
2021/09/02 00:18:12;;;;;;;12.18;7.00;;;;;;;;;;4965277;28;20026;-67
2021/09/02 00:20:55;;;;;;;11.10;7.85;;;;;;;;;;4977659;28;20500;-72
2021/09/02 00:23:22;;;;;;;11.43;7.65;;;;;;;;;;4952641;28;20133;-71
2021/09/02 00:32:27;;;;;;;9.82;7.82;;;;;;;;;;4972323;28;20105;-71
2021/09/02 00:34:56;;;;;;;10.60;7.40;;;;;;;;;;4962418;28;20585;-71
2021/09/02 00:37:22;;;;;;;10.23;7.28;;;;;;;;;;4973037;28;20098;-67
2021/09/02 00:39:48;;;;;;;11.85;7.57;;;;;;;;;;4973782;28;20014;-71
2021/09/02 00:42:14;;;;;;;8.88;6.88;;;;;;;;;;4968429;28;20039;-71
2021/09/02 00:44:54;;;;;;;9.60;6.85;;;;;;;;;;4975036;28;20015;-69
2021/09/02 00:47:21;;;;;;;11.52;7.40;;;;;;;;;;4972845;28;20045;-70
2021/09/02 00:49:47;;;;;;;11.95;7.57;;;;;;;;;;4968294;28;20023;-70
2021/09/02 00:52:16;;;;;;;13.77;7.68;;;;;;;;;;4973250;28;20030;-70
2021/09/02 00:54:44;;;;;;;9.20;6.97;;;;;;;;;;4973591;28;20019;-71
2021/09/02 00:57:10;;;;;;;13.07;7.57;;;;;;;;;;4973120;28;20031;-71
2021/09/02 00:59:37;;;;;;;8.98;7.38;;;;;;;;;;4971878;28;20191;-71
2021/09/02 01:02:03;;;;;;;9.38;6.82;;;;;;;;;;4973293;28;20081;-70
2021/09/02 01:04:32;;;;;;;11.05;7.53;;;;;;;;;;4968391;28;20110;-71
2021/09/02 01:06:58;;;;;;;10.60;7.55;;;;;;;;;;4966044;28;20054;-64
2021/09/02 01:09:26;;;;;;;11.15;6.95;;;;;;;;;;4973351;28;20027;-67
2021/09/02 01:11:52;;;;;;;9.00;7.43;;;;;;;;;;4973112;28;20031;-64
2021/09/02 01:14:19;;;;;;;11.38;7.97;;;;;;;;;;4976454;28;20045;-70
2021/09/02 01:16:50;;;;;;;16.02;8.32;;;;;;;;;;4965505;28;20033;-66
2021/09/02 01:19:22;;;;;;;11.35;7.63;;;;;;;;;;4947057;28;20035;-67
2021/09/02 01:21:48;;;;;;;10.00;7.75;;;;;;;;;;4967327;28;20512;-69
2021/09/02 01:24:15;;;;;;;11.50;7.88;;;;;;;;;;4969386;28;20055;-71
2021/09/02 01:26:42;;;;;;;14.38;7.95;;;;;;;;;;4980339;28;20539;-65
2021/09/02 01:29:11;;;;;;;11.35;7.78;;;;;;;;;;4973094;28;20078;-70
2021/09/02 01:31:37;;;;;;;9.23;7.63;;;;;;;;;;4963966;28;20042;-70
2021/09/02 01:34:07;;;;;;;10.77;7.30;;;;;;;;;;4971103;28;20024;-71
2021/09/02 01:36:33;;;;;;;8.85;7.45;;;;;;;;;;4960548;28;20069;-70
2021/09/02 01:38:59;;;;;;;10.68;7.75;;;;;;;;;;4972185;28;20023;-70
2021/09/02 01:41:25;;;;;;;10.90;7.57;;;;;;;;;;4971379;28;20493;-70
2021/09/02 01:43:52;;;;;;;11.90;8.02;;;;;;;;;;4976736;28;20023;-72
2021/09/02 01:46:18;;;;;;;9.80;7.90;;;;;;;;;;4973766;28;20054;-67
2021/09/02 01:48:44;;;;;;;12.70;7.93;;;;;;;;;;4971248;28;20081;-66
2021/09/02 01:51:10;;;;;;;11.88;7.18;;;;;;;;;;4973024;28;20454;-71
2021/09/02 01:53:36;;;;;;;11.07;7.82;;;;;;;;;;4973151;28;20018;-69
2021/09/02 01:56:02;;;;;;;10.85;7.35;;;;;;;;;;4973011;28;20030;-71
2021/09/02 01:58:28;;;;;;;12.05;7.63;;;;;;;;;;4971144;28;20026;-67
2021/09/02 02:00:54;;;;;;;12.13;7.47;;;;;;;;;;4969831;28;20026;-71
2021/09/02 02:03:20;;;;;;;11.07;7.88;;;;;;;;;;4976121;28;20159;-71
2021/09/02 02:05:46;;;;;;;8.13;6.85;;;;;;;;;;4968921;28;20031;-66
2021/09/02 02:08:16;;;;;;;11.52;7.50;;;;;;;;;;4976250;28;20035;-63
2021/09/02 02:10:42;;;;;;;10.38;7.20;;;;;;;;;;4975234;28;20027;-71
2021/09/02 02:13:08;;;;;;;8.98;6.82;;;;;;;;;;4976072;28;20027;-71
2021/09/02 02:15:34;;;;;;;9.15;7.50;;;;;;;;;;4973883;28;20019;-70
2021/09/02 02:18:00;;;;;;;13.57;6.97;;;;;;;;;;4975513;28;20015;-70
2021/09/02 02:20:27;;;;;;;11.38;7.22;;;;;;;;;;4974969;28;20613;-67
2021/09/02 02:22:53;;;;;;;11.07;6.80;;;;;;;;;;4973375;28;20041;-71
2021/09/02 02:25:19;;;;;;;12.77;7.68;;;;;;;;;;4976015;28;20139;-71
2021/09/02 02:27:45;;;;;;;10.60;7.47;;;;;;;;;;4975763;28;20035;-67
2021/09/02 02:30:13;;;;;;;9.52;7.47;;;;;;;;;;4974292;28;20026;-71
2021/09/02 02:32:39;;;;;;;9.95;7.68;;;;;;;;;;4975882;28;20077;-65
2021/09/02 02:35:05;;;;;;;8.63;6.95;;;;;;;;;;4973044;28;20071;-63
2021/09/02 02:37:31;;;;;;;10.05;6.72;;;;;;;;;;4976039;28;20374;-71
2021/09/02 02:39:57;;;;;;;9.43;6.82;;;;;;;;;;4974431;28;20019;-71
2021/09/02 02:42:24;;;;;;;10.23;6.85;;;;;;;;;;4975250;28;20049;-71
2021/09/02 02:44:50;;;;;;;11.60;7.40;;;;;;;;;;4989128;28;20019;-70
2021/09/02 02:47:16;;;;;;;10.68;7.60;;;;;;;;;;4975600;28;20053;-62
2021/09/02 02:49:42;;;;;;;10.45;7.38;;;;;;;;;;4974048;28;20018;-65
2021/09/02 02:52:08;;;;;;;10.48;7.20;;;;;;;;;;4975377;28;20084;-71
2021/09/02 02:54:35;;;;;;;11.85;7.15;;;;;;;;;;4975428;28;20543;-71
2021/09/02 02:57:01;;;;;;;11.65;7.22;;;;;;;;;;4975299;28;20035;-70
2021/09/02 02:59:27;;;;;;;10.15;6.88;;;;;;;;;;4974168;28;20388;-74
2021/09/02 03:01:53;;;;;;;8.18;6.63;;;;;;;;;;4967385;28;20042;-71
2021/09/02 03:04:19;;;;;;;10.00;7.07;;;;;;;;;;4963243;28;20034;-73
2021/09/02 03:06:45;;;;;;;9.23;7.05;;;;;;;;;;4974730;28;20509;-71
2021/09/02 03:09:11;;;;;;;9.30;7.00;;;;;;;;;;4974846;28;20385;-71
2021/09/02 03:11:39;;;;;;;9.23;7.07;;;;;;;;;;4973751;28;20022;-70
2021/09/02 03:14:05;;;;;;;8.73;7.10;;;;;;;;;;4974919;28;20076;-62
2021/09/02 03:16:31;;;;;;;10.32;6.90;;;;;;;;;;4964370;28;20033;-70
2021/09/02 03:18:57;;;;;;;10.07;7.35;;;;;;;;;;4971968;28;20023;-71
2021/09/02 03:21:23;;;;;;;17.90;7.25;;;;;;;;;;4970463;28;20031;-69
2021/09/02 03:23:49;;;;;;;10.25;7.88;;;;;;;;;;4970394;28;20505;-67
2021/09/02 03:26:15;;;;;;;9.43;7.53;;;;;;;;;;4975435;28;20429;-71
2021/09/02 03:28:42;;;;;;;14.00;7.35;;;;;;;;;;4974957;28;20077;-65
2021/09/02 03:31:08;;;;;;;8.18;6.82;;;;;;;;;;4973124;28;20042;-71
2021/09/02 03:33:34;;;;;;;11.32;7.68;;;;;;;;;;4974092;28;20035;-71
2021/09/02 03:36:00;;;;;;;10.88;7.68;;;;;;;;;;4972907;28;20106;-71
2021/09/02 03:38:28;;;;;;;9.57;7.35;;;;;;;;;;4974962;28;20027;-70
2021/09/02 03:40:54;;;;;;;9.68;7.28;;;;;;;;;;4972424;28;20167;-72
2021/09/02 03:43:21;;;;;;;12.13;6.82;;;;;;;;;;4974781;28;20018;-68
2021/09/02 03:45:47;;;;;;;9.73;7.13;;;;;;;;;;4974508;28;20023;-71
2021/09/02 03:48:14;;;;;;;11.65;7.55;;;;;;;;;;4974594;28;20024;-69
2021/09/02 03:50:40;;;;;;;11.93;7.70;;;;;;;;;;4973045;28;20412;-72
2021/09/02 03:53:06;;;;;;;13.00;7.45;;;;;;;;;;4974215;28;20081;-72
2021/09/02 03:55:32;;;;;;;11.50;7.25;;;;;;;;;;4974895;28;20556;-66
2021/09/02 03:57:58;;;;;;;10.57;6.90;;;;;;;;;;4975379;28;20042;-74
2021/09/02 04:00:24;;;;;;;12.20;7.07;;;;;;;;;;4979848;28;20038;-74
2021/09/02 04:02:50;;;;;;;12.68;8.20;;;;;;;;;;4968181;28;20035;-76
2021/09/02 04:05:18;;;;;;;11.77;7.10;;;;;;;;;;4963198;28;20054;-72
2021/09/02 04:07:44;;;;;;;11.43;7.50;;;;;;;;;;4978602;28;20068;-71
2021/09/02 04:10:11;;;;;;;11.38;7.35;;;;;;;;;;4974036;28;20037;-72
2021/09/02 04:12:37;;;;;;;14.38;8.13;;;;;;;;;;4973837;28;20105;-72
2021/09/02 04:15:03;;;;;;;12.60;8.02;;;;;;;;;;4978029;28;20027;-71
2021/09/02 04:17:29;;;;;;;13.43;7.70;;;;;;;;;;4974472;28;20019;-71
2021/09/02 04:19:55;;;;;;;10.90;8.32;;;;;;;;;;4979316;28;20031;-63
2021/09/02 04:22:21;;;;;;;9.88;7.80;;;;;;;;;;4970197;28;20038;-71
2021/09/02 04:24:47;;;;;;;10.38;7.03;;;;;;;;;;4972203;28;20489;-71
2021/09/02 04:27:15;;;;;;;11.65;7.70;;;;;;;;;;4973907;28;20101;-71
2021/09/02 04:29:41;;;;;;;10.55;7.43;;;;;;;;;;4972391;28;20106;-71
2021/09/02 04:32:07;;;;;;;13.02;7.20;;;;;;;;;;4974176;28;20038;-71
2021/09/02 04:34:34;;;;;;;16.02;8.43;;;;;;;;;;4979567;28;20081;-72
2021/09/02 04:37:00;;;;;;;12.80;8.15;;;;;;;;;;4974155;28;20034;-71
2021/09/02 04:39:26;;;;;;;13.27;8.15;;;;;;;;;;4973385;28;20030;-69
2021/09/02 04:41:52;;;;;;;12.88;7.97;;;;;;;;;;4964814;28;20109;-71
2021/09/02 04:44:18;;;;;;;13.57;8.13;;;;;;;;;;4969526;28;20071;-71
2021/09/02 04:46:44;;;;;;;11.82;8.00;;;;;;;;;;4975740;28;20023;-66
2021/09/02 04:49:10;;;;;;;11.90;7.80;;;;;;;;;;4964461;28;20023;-68
2021/09/02 04:51:36;;;;;;;10.65;7.50;;;;;;;;;;4981505;28;20106;-62
2021/09/02 04:54:02;;;;;;;13.05;7.85;;;;;;;;;;4974360;28;20089;-69
2021/09/02 04:56:30;;;;;;;12.93;7.22;;;;;;;;;;4975175;28;20873;-72
2021/09/02 04:58:56;;;;;;;12.30;7.85;;;;;;;;;;4973221;28;20059;-68
2021/09/02 05:01:22;;;;;;;10.88;7.50;;;;;;;;;;4969403;28;20063;-75
2021/09/02 05:03:48;;;;;;;10.60;8.07;;;;;;;;;;4965859;28;20041;-67
2021/09/02 05:06:14;;;;;;;11.18;8.02;;;;;;;;;;4978857;28;20039;-76
2021/09/02 05:08:40;;;;;;;10.77;8.05;;;;;;;;;;4978501;28;20469;-61
2021/09/02 05:11:07;;;;;;;11.90;7.40;;;;;;;;;;4967280;28;20031;-64
2021/09/02 05:13:33;;;;;;;10.73;7.18;;;;;;;;;;4971715;28;20106;-66
2021/09/02 05:15:59;;;;;;;11.13;7.43;;;;;;;;;;4966911;28;20015;-69
2021/09/02 05:18:25;;;;;;;12.05;7.70;;;;;;;;;;4966130;28;20047;-63
2021/09/02 05:20:52;;;;;;;10.52;7.70;;;;;;;;;;4978178;28;20042;-71
2021/09/02 05:23:18;;;;;;;11.90;7.65;;;;;;;;;;4970996;28;20202;-72
2021/09/02 05:25:44;;;;;;;13.93;7.68;;;;;;;;;;4971301;28;20066;-72
2021/09/02 05:28:10;;;;;;;12.55;7.43;;;;;;;;;;4967703;28;20038;-63
2021/09/02 05:30:36;;;;;;;10.25;6.93;;;;;;;;;;4970720;28;20023;-61
2021/09/02 05:33:02;;;;;;;11.98;7.18;;;;;;;;;;4975607;28;20484;-72
2021/09/02 05:35:28;;;;;;;11.80;7.68;;;;;;;;;;4977518;28;20026;-73
2021/09/02 05:37:55;;;;;;;13.43;7.45;;;;;;;;;;4960222;28;20038;-65
2021/09/02 05:40:21;;;;;;;14.55;7.35;;;;;;;;;;4977361;28;20023;-72
2021/09/02 05:42:47;;;;;;;12.15;7.45;;;;;;;;;;4974603;28;20037;-68
2021/09/02 05:45:13;;;;;;;11.93;7.00;;;;;;;;;;4976975;28;20485;-70
2021/09/02 05:47:45;;;;;;;11.40;7.35;;;;;;;;;;4977739;28;20101;-70
2021/09/02 05:50:17;;;;;;;11.15;7.40;;;;;;;;;;4979692;28;20027;-68
2021/09/02 05:52:43;;;;;;;11.48;7.30;;;;;;;;;;4987307;28;20042;-70
2021/09/02 05:55:10;;;;;;;14.75;7.22;;;;;;;;;;4986890;28;20026;-77
2021/09/02 05:57:36;;;;;;;10.80;7.05;;;;;;;;;;4985005;28;20030;-68
2021/09/02 06:00:02;;;;;;;11.30;6.93;;;;;;;;;;4984023;28;20031;-79
2021/09/02 06:02:30;;;;;;;12.32;6.85;;;;;;;;;;4983055;28;20556;-73
2021/09/02 06:04:56;;;;;;;14.25;7.50;;;;;;;;;;4978852;28;20027;-77
2021/09/02 06:07:22;;;;;;;12.40;7.28;;;;;;;;;;4977747;28;20027;-62
2021/09/02 06:09:48;;;;;;;12.30;7.00;;;;;;;;;;4975995;28;20115;-79
2021/09/02 06:12:14;;;;;;;11.02;7.18;;;;;;;;;;4976100;28;20106;-74
2021/09/02 06:14:40;;;;;;;16.30;7.90;;;;;;;;;;4976131;28;20031;-64
2021/09/02 06:17:06;;;;;;;11.88;7.00;;;;;;;;;;4962554;28;20027;-74
2021/09/02 06:19:32;;;;;;;13.35;6.85;;;;;;;;;;4974843;28;20026;-75
2021/09/02 06:21:58;;;;;;;11.07;7.57;;;;;;;;;;4975691;28;20122;-68
2021/09/02 06:24:24;;;;;;;9.38;6.68;;;;;;;;;;4975743;28;20050;-77
2021/09/02 06:26:50;;;;;;;7.97;6.55;;;;;;;;;;4976112;28;20035;-68
2021/09/02 06:29:16;;;;;;;10.40;7.10;;;;;;;;;;4973812;28;20972;-66
2021/09/02 06:31:42;;;;;;;11.18;6.80;;;;;;;;;;4973471;28;20039;-75
2021/09/02 06:34:11;;;;;;;10.48;6.60;;;;;;;;;;4979737;28;20101;-89
2021/09/02 06:36:37;;;;;;;16.35;7.25;;;;;;;;;;4976847;28;20058;-76
2021/09/02 06:39:09;;;;;;;12.25;6.28;;;;;;;;;;4975875;28;20027;-87
2021/09/02 06:41:36;;;;;;;15.30;6.78;;;;;;;;;;4958190;28;20413;-73
2021/09/02 06:44:05;;;;;;;13.13;7.65;;;;;;;;;;4955346;28;20026;-84
2021/09/02 06:46:40;;;;;;;11.27;6.65;;;;;;;;;;4956866;28;20046;-88
2021/09/02 06:49:07;;;;;;;10.95;6.97;;;;;;;;;;4957942;28;20031;-71
2021/09/02 06:51:37;;;;;;;8.57;6.50;;;;;;;;;;4957465;28;20023;-79
2021/09/02 06:54:03;;;;;;;11.60;6.72;;;;;;;;;;4974290;28;20023;-74
2021/09/02 06:56:29;;;;;;;12.27;7.00;;;;;;;;;;4973679;28;20129;-73
2021/09/02 06:58:55;;;;;;;9.43;7.07;;;;;;;;;;4973934;28;20027;-75
2021/09/02 07:01:22;;;;;;;8.93;6.25;;;;;;;;;;4974517;28;20457;-75
2021/09/02 07:03:48;;;;;;;9.18;6.47;;;;;;;;;;4972677;28;20030;-70
2021/09/02 07:06:14;;;;;;;10.77;6.50;;;;;;;;;;4979028;28;20023;-71
2021/09/02 07:08:40;;;;;;;9.20;6.40;;;;;;;;;;4953754;28;20035;-68
2021/09/02 07:11:06;;;;;;;9.15;6.72;;;;;;;;;;4975178;28;20038;-72
2021/09/02 07:13:32;;;;;;;8.45;6.38;;;;;;;;;;4974754;28;20396;-70
2021/09/02 07:15:58;;;;;;;8.48;6.60;;;;;;;;;;4967333;28;20023;-73
2021/09/02 07:18:25;;;;;;;14.73;6.85;;;;;;;;;;4962441;28;20027;-73
2021/09/02 07:20:51;;;;;;;10.70;7.95;;;;;;;;;;4970687;28;20102;-79
2021/09/02 07:23:18;;;;;;;9.40;6.70;;;;;;;;;;4957387;28;20043;-75
2021/09/02 07:25:46;;;;;;;10.60;6.35;;;;;;;;;;4966867;28;20045;-77
2021/09/02 07:28:12;;;;;;;10.23;6.90;;;;;;;;;;4973784;28;20023;-69
2021/09/02 07:30:40;;;;;;;9.85;7.03;;;;;;;;;;4972221;28;20023;-74
2021/09/02 07:33:08;;;;;;;13.68;6.82;;;;;;;;;;4974673;28;20043;-72
2021/09/02 07:35:34;;;;;;;10.18;7.00;;;;;;;;;;4973995;28;20159;-72
2021/09/02 07:38:00;;;;;;;10.82;6.55;;;;;;;;;;4974958;28;20019;-65
2021/09/02 07:40:26;;;;;;;8.73;6.90;;;;;;;;;;4974706;28;20038;-66
2021/09/02 07:42:55;;;;;;;9.85;6.88;;;;;;;;;;4974386;28;20137;-75
2021/09/02 07:45:21;;;;;;;13.30;7.32;;;;;;;;;;4974179;28;20031;-75
2021/09/02 07:47:47;;;;;;;12.50;8.60;;;;;;;;;;4973838;28;20035;-64
2021/09/02 07:50:14;;;;;;;13.88;10.52;;;;;;;;;;4973112;28;20065;-74
2021/09/02 07:52:40;;;;;;;11.50;7.43;;;;;;;;;;4964713;28;20030;-84
2021/09/02 07:55:07;;;;;;;9.93;6.78;;;;;;;;;;4975531;28;20037;-82
2021/09/02 07:57:33;;;;;;;8.75;6.50;;;;;;;;;;4974343;28;20058;-79
2021/09/02 08:00:00;;;;;;;10.68;6.80;;;;;;;;;;4973862;28;20026;-78
2021/09/02 08:02:26;;;;;;;9.18;6.70;;;;;;;;;;4972023;28;20555;-72
2021/09/02 08:04:52;;;;;;;11.60;7.75;;;;;;;;;;4975587;28;20768;-75
2021/09/02 08:07:18;;;;;;;10.35;7.05;;;;;;;;;;4974257;28;20019;-72
2021/09/02 08:09:45;;;;;;;9.05;7.07;;;;;;;;;;4974311;28;20457;-75
2021/09/02 08:12:11;;;;;;;13.55;7.35;;;;;;;;;;4959589;28;20042;-74
2021/09/02 08:14:37;;;;;;;10.70;6.95;;;;;;;;;;4973655;28;20508;-69
2021/09/02 08:17:04;;;;;;;11.10;7.18;;;;;;;;;;4960523;28;20385;-73
2021/09/02 08:22:49;;;;;;;11.18;7.13;;;;;;;;;;4913748;29;20493;-69
2021/09/02 08:25:16;;;;;;;13.80;7.60;;;;;;;;;;4896157;29;20139;-74
2021/09/02 08:28:27;;;;;;;14.38;10.13;;;;;;;;;;4928452;29;20123;-71
2021/09/02 08:30:59;;;;;;;12.82;8.07;;;;;;;;;;4894971;29;20080;-71
2021/09/02 08:33:57;;;;;;;13.25;8.20;;;;;;;;;;4921274;29;20040;-71
2021/09/02 08:36:46;;;;;;;11.73;8.35;;;;;;;;;;4845837;29;20079;-70
2021/09/02 08:39:15;;;;;;;11.43;7.57;;;;;;;;;;4842360;29;20516;-89
2021/09/02 08:41:42;;;;;;;10.57;7.40;;;;;;;;;;4861965;29;20056;-75
2021/09/02 08:44:09;;;;;;;14.88;7.85;;;;;;;;;;4861898;29;20096;-83
2021/09/02 08:46:36;;;;;;;11.80;7.60;;;;;;;;;;4848759;29;20038;-74
2021/09/02 08:49:05;;;;;;;13.43;7.70;;;;;;;;;;4849960;29;20071;-83
2021/09/02 08:51:32;;;;;;;13.23;8.18;;;;;;;;;;4841784;29;20045;-74
2021/09/02 08:54:17;;;;;;;10.90;7.40;;;;;;;;;;4852033;29;20041;-84
2021/09/02 08:56:50;;;;;;;10.73;7.32;;;;;;;;;;4845357;29;20033;-85
2021/09/02 08:59:16;;;;;;;12.77;7.90;;;;;;;;;;4868364;29;20049;-72
2021/09/02 09:01:49;;;;;;;9.20;6.97;;;;;;;;;;4886251;29;20048;-70
2021/09/02 09:04:16;;;;;;;13.40;8.38;;;;;;;;;;4876763;29;20061;-80
2021/09/02 09:06:43;;;;;;;15.27;9.50;;;;;;;;;;4876964;29;20033;-72
2021/09/02 09:09:12;;;;;;;9.90;7.13;;;;;;;;;;4876817;29;20033;-73
2021/09/02 09:11:53;;;;;;;;;;;;;;;;;;;;;
2021/09/02 09:14:30;;;;;;;9.35;6.40;;;;;;;;;;4966071;28;20127;-71
2021/09/02 09:16:57;;;;;;;10.23;6.40;;;;;;;;;;4970293;28;20037;-76
2021/09/02 09:19:39;;;;;;;10.02;6.18;;;;;;;;;;4972540;28;20077;-74
2021/09/02 09:22:10;;;;;;;9.43;5.85;;;;;;;;;;4971446;28;20044;-76
2021/09/02 09:24:56;;;;;;;7.90;5.78;;;;;;;;;;4956716;28;20070;-79
2021/09/02 09:27:32;;;;;;;7.95;5.35;;;;;;;;;;4972864;28;20558;-74
2021/09/02 09:30:05;;;;;;;7.50;5.35;;;;;;;;;;4964242;28;20058;-68
2021/09/02 09:32:42;;;;;;;10.52;5.88;;;;;;;;;;4986425;28;20061;-68
2021/09/02 09:35:13;;;;;;;8.77;5.47;;;;;;;;;;4976337;28;20031;-68
2021/09/02 09:37:48;;;;;;;10.15;5.90;;;;;;;;;;4973087;28;20050;-69
2021/09/02 09:40:21;;;;;;;11.20;6.35;;;;;;;;;;4970554;28;20504;-67
2021/09/02 09:42:57;;;;;;;13.18;5.97;;;;;;;;;;4971558;28;20066;-77
2021/09/02 09:45:39;;;;;;;8.52;5.38;;;;;;;;;;4973146;28;20058;-75
2021/09/02 09:48:17;;;;;;;8.57;5.07;;;;;;;;;;4988628;28;20037;-83
2021/09/02 09:50:47;;;;;;;10.75;5.90;;;;;;;;;;4971897;28;20030;-71
2021/09/02 09:53:27;;;;;;;11.27;6.15;;;;;;;;;;4973091;28;20883;-72
2021/09/02 09:55:54;;;;;;;8.20;6.13;;;;;;;;;;4972413;28;20027;-74
2021/09/02 09:58:26;;;;;;;13.70;9.57;;;;;;;;;;4972762;28;20126;-69
2021/09/02 10:00:53;;;;;;;15.38;9.18;;;;;;;;;;4972688;28;20078;-73
2021/09/02 10:03:20;;;;;;;22.45;13.07;;;;;;;;;;4972018;28;20039;-71
2021/09/02 10:05:48;;;;;;;14.80;8.32;;;;;;;;;;4972537;28;20040;-72
2021/09/02 10:08:14;;;;;;;18.85;11.32;;;;;;;;;;4972445;28;20113;-73
2021/09/02 10:10:49;;;;;;;11.98;7.85;;;;;;;;;;4973119;28;20039;-70
2021/09/02 10:13:16;;;;;;;26.83;14.85;;;;;;;;;;4957318;28;20074;-68
2021/09/02 10:15:42;;;;;;;17.00;9.45;;;;;;;;;;4968091;28;20059;-77
2021/09/02 10:18:19;;;;;;;11.00;7.32;;;;;;;;;;4943577;28;20114;-76
2021/09/02 10:20:56;;;;;;;16.23;10.38;;;;;;;;;;4970455;28;20019;-80
2021/09/02 10:23:24;;;;;;;17.17;8.90;;;;;;;;;;4975735;28;20062;-72
2021/09/02 10:25:53;;;;;;;9.50;6.20;;;;;;;;;;4975393;28;20023;-71
2021/09/02 10:28:25;;;;;;;7.80;5.65;;;;;;;;;;4965179;28;20043;-74
2021/09/02 10:30:51;;;;;;;12.50;5.47;;;;;;;;;;4957999;28;20027;-73
2021/09/02 10:33:41;;;;;;;6.03;4.90;;;;;;;;;;4963500;28;20033;-73
2021/09/02 10:36:16;;;;;;;9.82;5.18;;;;;;;;;;4957585;28;20038;-72
2021/09/02 10:38:48;;;;;;;8.20;5.18;;;;;;;;;;4956107;28;20037;-71
2021/09/02 10:41:35;;;;;;;8.82;5.07;;;;;;;;;;4975602;28;20035;-73
2021/09/02 10:44:07;;;;;;;11.82;5.25;;;;;;;;;;4972897;28;20030;-70
2021/09/02 10:46:40;;;;;;;8.00;5.03;;;;;;;;;;4972002;28;20392;-71
2021/09/02 10:49:12;;;;;;;10.50;5.80;;;;;;;;;;4969084;28;20034;-74
2021/09/02 10:51:39;;;;;;;10.60;5.68;;;;;;;;;;4975900;28;20023;-68
2021/09/02 10:54:06;;;;;;;8.55;5.47;;;;;;;;;;4975903;28;20444;-84
2021/09/02 10:56:33;;;;;;;8.35;5.57;;;;;;;;;;4976528;28;20481;-77
2021/09/02 10:58:59;;;;;;;11.02;5.82;;;;;;;;;;4976599;28;20023;-76
2021/09/02 11:01:31;;;;;;;8.90;5.05;;;;;;;;;;4971246;28;20568;-69
2021/09/02 11:03:57;;;;;;;9.38;5.95;;;;;;;;;;4971583;28;20073;-89
2021/09/02 11:06:24;;;;;;;7.45;4.80;;;;;;;;;;4962060;28;20089;-65
2021/09/02 11:08:52;;;;;;;10.23;5.00;;;;;;;;;;4975594;28;20089;-64
2021/09/02 11:11:20;;;;;;;6.00;4.63;;;;;;;;;;4974952;28;20553;-75
2021/09/02 11:13:47;;;;;;;9.50;5.00;;;;;;;;;;4975471;28;20114;-65
2021/09/02 11:16:14;;;;;;;9.20;5.47;;;;;;;;;;4967019;28;20027;-67
2021/09/02 11:18:41;;;;;;;7.13;5.07;;;;;;;;;;4975146;28;20377;-75
2021/09/02 11:21:27;;;;;;;8.52;5.45;;;;;;;;;;4974822;28;20030;-75
2021/09/02 11:23:57;;;;;;;8.98;5.30;;;;;;;;;;4974850;28;20102;-74
2021/09/02 11:26:32;;;;;;;13.68;5.50;;;;;;;;;;4973801;28;20049;-79
2021/09/02 11:28:58;;;;;;;9.43;5.40;;;;;;;;;;4971679;28;20097;-73
2021/09/02 11:31:24;;;;;;;8.10;4.88;;;;;;;;;;4974585;28;20034;-75
2021/09/02 11:33:51;;;;;;;7.65;5.38;;;;;;;;;;4973539;28;20019;-75
2021/09/02 11:36:18;;;;;;;8.95;5.07;;;;;;;;;;4974713;28;20083;-66
2021/09/02 11:38:45;;;;;;;7.72;5.05;;;;;;;;;;4974461;28;20388;-77
2021/09/02 11:41:25;;;;;;;6.57;5.10;;;;;;;;;;4973748;28;20544;-78
2021/09/02 11:43:52;;;;;;;9.73;5.20;;;;;;;;;;4974783;28;20126;-74
2021/09/02 11:46:19;;;;;;;6.47;5.13;;;;;;;;;;4973007;28;20034;-75
2021/09/02 11:48:46;;;;;;;7.53;5.40;;;;;;;;;;4973462;28;20532;-68
2021/09/02 11:51:12;;;;;;;9.32;5.40;;;;;;;;;;4961237;28;20093;-69
2021/09/02 11:53:39;;;;;;;9.38;5.28;;;;;;;;;;4976202;28;20051;-77
2021/09/02 11:56:11;;;;;;;11.07;5.70;;;;;;;;;;4970056;28;20031;-67
2021/09/02 11:58:37;;;;;;;9.05;5.47;;;;;;;;;;4974279;28;20031;-69
2021/09/02 12:01:03;;;;;;;7.75;5.50;;;;;;;;;;4973266;28;20023;-74
2021/09/02 12:03:30;;;;;;;6.28;4.85;;;;;;;;;;4974400;28;20023;-76
2021/09/02 12:05:56;;;;;;;6.53;4.80;;;;;;;;;;4973159;28;20033;-69
2021/09/02 12:08:23;;;;;;;7.30;5.20;;;;;;;;;;4973937;28;20023;-78
2021/09/02 12:10:49;;;;;;;7.05;5.10;;;;;;;;;;4972564;28;20110;-64
2021/09/02 12:13:25;;;;;;;6.72;5.00;;;;;;;;;;4974303;28;20031;-74
2021/09/02 12:16:03;;;;;;;10.23;5.88;;;;;;;;;;4965212;28;20039;-77
2021/09/02 12:18:30;;;;;;;7.93;5.90;;;;;;;;;;4967658;28;20046;-72
2021/09/02 12:21:07;;;;;;;7.72;5.30;;;;;;;;;;4961750;28;20069;-74
2021/09/02 12:23:41;;;;;;;8.38;5.00;;;;;;;;;;4973865;28;20054;-77
2021/09/02 12:26:08;;;;;;;9.52;5.72;;;;;;;;;;4971540;28;20049;-77
2021/09/02 12:28:42;;;;;;;8.13;5.22;;;;;;;;;;4966498;28;20451;-71
2021/09/02 12:31:17;;;;;;;8.73;5.43;;;;;;;;;;4973108;28;20042;-75
2021/09/02 12:34:02;;;;;;;7.10;4.85;;;;;;;;;;4973518;28;20031;-76
2021/09/02 12:36:33;;;;;;;7.78;5.45;;;;;;;;;;4966307;28;20030;-64
2021/09/02 12:39:12;;;;;;;7.85;5.15;;;;;;;;;;4973730;28;20469;-75
2021/09/02 12:41:46;;;;;;;7.50;5.18;;;;;;;;;;4972240;28;20093;-70
2021/09/02 12:44:12;;;;;;;;;;;;;;;;;;4973780;28;20035;-77
2021/09/02 12:46:50;;;;;;;7.28;4.85;;;;;;;;;;4964996;28;19964;-76
2021/09/02 12:49:17;;;;;;;9.68;5.25;;;;;;;;;;4969135;28;20037;-68
2021/09/02 12:51:55;;;;;;;11.73;5.90;;;;;;;;;;4973551;28;20014;-74
2021/09/02 12:54:21;;;;;;;6.88;4.88;;;;;;;;;;4971943;28;20059;-70
2021/09/02 12:56:48;;;;;;;8.93;5.13;;;;;;;;;;4972111;28;20389;-70
2021/09/02 12:59:14;;;;;;;8.60;5.20;;;;;;;;;;4973609;28;20027;-70
2021/09/02 13:01:40;;;;;;;6.50;5.18;;;;;;;;;;4973347;28;20440;-76
2021/09/02 13:04:06;;;;;;;8.30;5.40;;;;;;;;;;4972505;28;20417;-77
2021/09/02 13:06:32;;;;;;;7.80;4.90;;;;;;;;;;4973296;28;20054;-74
2021/09/02 13:08:59;;;;;;;7.30;5.00;;;;;;;;;;4973440;28;20026;-68
2021/09/02 13:11:25;;;;;;;5.43;4.60;;;;;;;;;;4973145;28;20033;-74
2021/09/02 13:13:51;;;;;;;6.28;4.90;;;;;;;;;;4972555;28;20031;-72
2021/09/02 13:16:17;;;;;;;10.35;5.03;;;;;;;;;;4962469;28;20066;-66
2021/09/02 13:18:43;;;;;;;10.18;4.70;;;;;;;;;;4968280;28;20031;-77
2021/09/02 13:24:22;;;;;;;6.32;4.75;;;;;;;;;;4975635;28;20567;-77
2021/09/02 13:26:48;;;;;;;6.30;4.60;;;;;;;;;;4936474;29;20496;-74
2021/09/02 13:29:14;;;;;;;5.57;4.32;;;;;;;;;;4953938;28;20465;-76
2021/09/02 13:31:40;;;;;;;7.88;4.82;;;;;;;;;;4953506;28;20031;-76
2021/09/02 13:34:06;;;;;;;9.80;5.25;;;;;;;;;;4953709;28;20063;-72
2021/09/02 13:36:32;;;;;;;6.47;5.03;;;;;;;;;;4953724;28;20038;-74
2021/09/02 13:38:58;;;;;;;8.73;4.95;;;;;;;;;;4953539;28;20027;-64
2021/09/02 13:41:25;;;;;;;7.03;5.28;;;;;;;;;;4953814;28;20525;-71
2021/09/02 13:43:51;;;;;;;8.02;5.35;;;;;;;;;;4953457;28;20041;-73
2021/09/02 13:46:17;;;;;;;6.10;4.60;;;;;;;;;;4953834;28;20034;-73
2021/09/02 13:48:43;;;;;;;5.75;4.80;;;;;;;;;;4953994;28;20055;-66
2021/09/02 13:51:11;;;;;;;6.95;5.00;;;;;;;;;;4953500;28;20027;-78
2021/09/02 13:53:37;;;;;;;6.03;4.75;;;;;;;;;;4955025;28;20035;-64
2021/09/02 13:56:03;;;;;;;8.10;4.75;;;;;;;;;;4957405;28;20027;-71
2021/09/02 13:58:29;;;;;;;10.60;5.07;;;;;;;;;;4957196;28;20563;-65
2021/09/02 14:01:00;;;;;;;6.00;4.55;;;;;;;;;;4956986;28;20462;-77
2021/09/02 14:03:26;;;;;;;7.97;4.63;;;;;;;;;;4955163;28;20074;-76
2021/09/02 14:05:52;;;;;;;8.45;5.13;;;;;;;;;;4956525;28;20028;-71
2021/09/02 14:08:18;;;;;;;5.80;4.68;;;;;;;;;;4957408;28;20110;-70
2021/09/02 14:10:44;;;;;;;7.20;4.80;;;;;;;;;;4956546;28;20026;-67
2021/09/02 14:13:10;;;;;;;6.88;5.07;;;;;;;;;;4956522;28;20071;-78
2021/09/02 14:15:36;;;;;;;7.30;4.68;;;;;;;;;;4953352;28;20051;-78
2021/09/02 14:18:02;;;;;;;6.60;4.78;;;;;;;;;;4947254;29;20132;-74
2021/09/02 14:30:09;;;;;;;7.05;4.68;;;;;;;;;;4987433;28;20050;-72
2021/09/02 14:32:36;;;;;;;8.50;5.13;;;;;;;;;;4975898;28;20388;-76
2021/09/02 14:35:02;;;;;;;7.68;4.82;;;;;;;;;;4974120;28;20019;-68
2021/09/02 14:37:28;;;;;;;6.07;4.50;;;;;;;;;;4975559;28;20027;-70
2021/09/02 14:39:54;;;;;;;7.88;4.90;;;;;;;;;;4975837;28;20125;-71
2021/09/02 14:42:20;;;;;;;7.45;4.82;;;;;;;;;;4974174;28;20125;-75
2021/09/02 14:44:56;;;;;;;6.28;4.75;;;;;;;;;;4970768;28;20046;-76
2021/09/02 14:47:22;;;;;;;6.93;4.60;;;;;;;;;;4975765;28;20476;-75
2021/09/02 14:49:48;;;;;;;8.27;4.90;;;;;;;;;;4974090;28;20030;-71
2021/09/02 14:52:14;;;;;;;7.15;4.55;;;;;;;;;;4975662;28;20034;-75
2021/09/02 14:54:40;;;;;;;8.95;4.90;;;;;;;;;;4965827;28;20050;-77
2021/09/02 14:57:10;;;;;;;7.60;4.40;;;;;;;;;;4982556;28;20122;-74
2021/09/02 14:59:37;;;;;;;6.82;4.55;;;;;;;;;;4975768;28;20031;-69
2021/09/02 15:02:03;;;;;;;6.95;4.90;;;;;;;;;;4975718;28;20420;-72
2021/09/02 15:04:29;;;;;;;7.15;4.60;;;;;;;;;;4965993;28;20024;-69